Howell, MI

4:52 AM EDT on August 24, 2016 (GMT -0400)
Livingston County

Weather History for KOZW - November, 2011

Change the Weather History Date:

Sunday, November 27, 2011

  Actual Average Record
Temperature  
Mean Temperature 44 °F -  
Max Temperature 53 °F 43 °F 62 °F (2006)
Min Temperature 35 °F 30 °F 14 °F (2002)
Degree Days  
Heating Degree Days 21    
Moisture  
Dew Point 45 °F    
Average Humidity 93    
Maximum Humidity 100    
Minimum Humidity 87    
Precipitation  
Precipitation 0.00 in - - ()
Sea Level Pressure  
Sea Level Pressure 29.83 in    
Wind  
Wind Speed 11 mph (WNW)    
Max Wind Speed 15 mph    
Max Gust Speed 22 mph    
Visibility 8 miles    
Events Rain    
Averages and records for this station are not official NWS values.
T = Trace of Precipitation, MM = Missing Value Source: NWS Daily Summary

Daily Weather History Graph

Daily Weather History Graph

Search for Another Location

Airport or City:

Trip Planner

Search our weather history database for the weather conditions in past years. The results will help you decide how hot, cold, wet, or windy it might be!

Date:

Astronomy

Nov. 27, 2011 Rise Set
Actual Time 7:41 AM EST 5:05 PM EST
Civil Twilight 7:10 AM EST 5:36 PM EST
Nautical Twilight 6:35 AM EST 6:11 PM EST
Astronomical Twilight 6:01 AM EST 6:45 PM EST
Moon 10:06 AM EST (11/27) 7:42 PM EST (11/27)
Length of Visible Light 10h 26m
Length of Day
9h 23m
Waxing Crescent, 8% of the Moon is Illuminated
Nov 27
Waxing Crescent
Dec 2
First Quarter
Dec 10
Full
Dec 17
Last Quarter
Dec 24
New

Hourly Weather History & Observations

Time (EST) Temp. Windchill Dew Point Humidity Pressure Visibility Wind Dir Wind Speed Gust Speed Precip Events Conditions
12:34 AM 53.6 °F - 50.0 °F 88% 29.80 in 10.0 mi South 13.8 mph 19.6 mph N/A Rain Light Rain
12:55 AM 53.6 °F - 50.0 °F 88% 29.79 in 10.0 mi South 11.5 mph 16.1 mph N/A Rain Light Rain
1:15 AM 53.6 °F - 50.0 °F 88% 29.78 in 10.0 mi South 12.7 mph 18.4 mph N/A Rain Light Rain
1:55 AM 53.6 °F - 50.0 °F 88% 29.78 in 10.0 mi South 13.8 mph 20.7 mph N/A Rain Light Rain
2:14 AM 53.6 °F - 51.8 °F 94% 29.77 in 7.0 mi South 12.7 mph - N/A Rain Light Rain
2:35 AM 53.6 °F - 51.8 °F 94% 29.76 in 10.0 mi South 11.5 mph - N/A Rain Light Rain
3:15 AM 53.6 °F - 51.8 °F 94% 29.76 in 7.0 mi South 13.8 mph - N/A   Drizzle
3:35 AM 53.6 °F - 51.8 °F 94% 29.75 in 10.0 mi South 9.2 mph 17.3 mph N/A Rain Light Rain
3:55 AM 53.6 °F - 51.8 °F 94% 29.74 in 7.0 mi South 10.4 mph 16.1 mph N/A Rain Light Rain
4:15 AM 53.6 °F - 51.8 °F 94% 29.73 in 10.0 mi South 12.7 mph - N/A Rain Rain
4:35 AM 53.6 °F - 51.8 °F 94% 29.72 in 10.0 mi South 10.4 mph - N/A Rain Light Rain
5:14 AM 53.6 °F - 51.8 °F 94% 29.72 in 10.0 mi South 15.0 mph 18.4 mph N/A Rain Light Rain
5:35 AM 53.6 °F - 51.8 °F 94% 29.72 in 10.0 mi South 11.5 mph - N/A Rain Light Rain
6:14 AM 53.6 °F - 51.8 °F 94% 29.72 in 7.0 mi SSW 11.5 mph 21.9 mph N/A Rain Light Rain
6:35 AM 53.6 °F - 51.8 °F 94% 29.73 in 10.0 mi SSW 11.5 mph 18.4 mph N/A Rain Light Rain
6:55 AM 53.6 °F - 51.8 °F 94% 29.73 in 7.0 mi SSW 11.5 mph 16.1 mph N/A   Light Drizzle
7:15 AM 53.6 °F - 51.8 °F 94% 29.73 in 10.0 mi SSW 10.4 mph - N/A   Overcast
7:35 AM 53.6 °F - 51.8 °F 94% 29.73 in 10.0 mi SSW 11.5 mph 20.7 mph N/A   Overcast
7:55 AM 53.6 °F - 51.8 °F 94% 29.73 in 10.0 mi SSW 9.2 mph 16.1 mph N/A   Overcast
8:15 AM 53.6 °F - 51.8 °F 94% 29.74 in 10.0 mi SSW 8.1 mph - N/A   Overcast
8:35 AM 53.6 °F - 51.8 °F 94% 29.74 in 7.0 mi SSW 8.1 mph - N/A   Overcast
8:54 AM 53.6 °F - 51.8 °F 94% 29.75 in 7.0 mi SSW 9.2 mph - N/A Rain Light Rain
9:15 AM 53.6 °F - 51.8 °F 94% 29.75 in 5.0 mi SW 8.1 mph - N/A Rain Light Rain
9:35 AM 53.6 °F - 53.6 °F 100% 29.76 in 2.5 mi SW 8.1 mph - N/A Rain Light Rain
10:15 AM 53.6 °F - 51.8 °F 94% 29.77 in 10.0 mi WSW 6.9 mph - N/A Rain Rain
10:34 AM 53.6 °F - 51.8 °F 94% 29.78 in 10.0 mi WSW 10.4 mph - N/A Rain Light Rain
10:55 AM 53.6 °F - 51.8 °F 94% 29.79 in 10.0 mi WSW 8.1 mph - N/A   Drizzle
11:15 AM 50.0 °F - 48.2 °F 94% 29.79 in 7.0 mi NW 12.7 mph - N/A Rain Light Rain
11:34 AM 50.0 °F - 46.4 °F 87% 29.79 in 7.0 mi NNW 12.7 mph 16.1 mph N/A Rain Light Rain
11:55 AM 48.2 °F - 46.4 °F 93% 29.78 in 10.0 mi North 9.2 mph - N/A Rain Light Rain
12:15 PM 46.4 °F 42.9 °F 44.6 °F 93% 29.78 in 10.0 mi North 6.9 mph - N/A Rain Light Rain
12:55 PM 46.4 °F 43.5 °F 44.6 °F 93% 29.79 in 7.0 mi North 5.8 mph - N/A Rain Light Rain
1:14 PM 46.4 °F 42.4 °F 44.6 °F 93% 29.79 in 7.0 mi NNW 8.1 mph - N/A Rain Light Rain
1:35 PM 46.4 °F 41.5 °F 44.6 °F 93% 29.80 in 10.0 mi NNW 10.4 mph 16.1 mph N/A Rain Light Rain
1:55 PM 44.6 °F 39.2 °F 42.8 °F 93% 29.80 in 7.0 mi NNW 10.4 mph - N/A Rain Light Rain
2:14 PM 44.6 °F 38.4 °F 41.0 °F 87% 29.81 in 7.0 mi NNW 12.7 mph 20.7 mph N/A Rain Light Rain
2:35 PM 42.8 °F 38.0 °F 41.0 °F 93% 29.82 in 7.0 mi NNW 8.1 mph - N/A Rain Rain
2:54 PM 42.8 °F 37.5 °F 41.0 °F 93% 29.83 in 7.0 mi NNW 9.2 mph - N/A Rain Rain
3:15 PM 42.8 °F 37.5 °F 41.0 °F 93% 29.84 in 7.0 mi NNW 9.2 mph - N/A Rain Light Rain
3:35 PM 41.0 °F 34.3 °F 39.2 °F 93% 29.85 in 10.0 mi NNW 11.5 mph 17.3 mph N/A Rain Light Rain
3:54 PM 41.0 °F 33.9 °F 39.2 °F 93% 29.86 in 10.0 mi NNW 12.7 mph 17.3 mph N/A Rain Light Rain
4:15 PM 41.0 °F 35.8 °F 37.4 °F 87% 29.88 in 10.0 mi NNW 8.1 mph - N/A Rain Rain
4:35 PM 41.0 °F 35.8 °F 37.4 °F 87% 29.90 in 10.0 mi NNW 8.1 mph - N/A Rain Light Rain
4:54 PM 41.0 °F 35.8 °F 37.4 °F 87% 29.89 in 10.0 mi NNW 8.1 mph - N/A Rain Light Rain
5:15 PM 39.2 °F 33.0 °F 37.4 °F 93% 29.91 in 10.0 mi NNW 9.2 mph 16.1 mph N/A Rain Rain
5:34 PM 37.4 °F 29.8 °F 35.6 °F 93% 29.91 in 10.0 mi NNW 11.5 mph 18.4 mph N/A Rain Rain
5:55 PM 37.4 °F 30.8 °F 35.6 °F 93% 29.91 in 10.0 mi NNW 9.2 mph 16.1 mph N/A   Drizzle
6:15 PM 37.4 °F 30.8 °F 35.6 °F 93% 29.93 in 7.0 mi NNW 9.2 mph - N/A Rain Rain
6:34 PM 37.4 °F 32.8 °F 35.6 °F 93% 29.95 in 5.0 mi NNW 5.8 mph - N/A Rain Light Rain
6:55 PM 37.4 °F 32.1 °F 35.6 °F 93% 29.95 in 5.0 mi NNW 6.9 mph - N/A Rain Rain
7:15 PM 35.6 °F 29.9 °F 35.6 °F 100% 29.97 in 4.0 mi NNW 6.9 mph - N/A Rain Light Rain
7:35 PM 35.6 °F 30.7 °F 33.8 °F 93% 29.97 in 5.0 mi NNW 5.8 mph - N/A Rain Light Rain
7:55 PM 35.6 °F 31.7 °F 33.8 °F 93% 29.98 in 5.0 mi NNW 4.6 mph - N/A Rain Light Rain
8:14 PM 35.6 °F 30.7 °F 33.8 °F 93% 29.98 in 7.0 mi North 5.8 mph - N/A Rain Light Rain
8:35 PM 35.6 °F 29.2 °F 33.8 °F 93% 30.00 in 10.0 mi NNW 8.1 mph - N/A Rain Light Rain
8:55 PM 35.6 °F 30.7 °F 33.8 °F 93% 29.98 in 10.0 mi NNW 5.8 mph - N/A   Overcast
9:14 PM 35.6 °F 30.7 °F 33.8 °F 93% 30.00 in 10.0 mi NW 5.8 mph - N/A   Overcast
9:35 PM 35.6 °F 30.7 °F 33.8 °F 93% 30.02 in 10.0 mi NNW 5.8 mph - N/A   Overcast
9:55 PM 35.6 °F 29.9 °F 33.8 °F 93% 30.03 in 10.0 mi NNW 6.9 mph - N/A Rain Light Rain
10:14 PM 35.6 °F 29.9 °F 33.8 °F 93% 30.01 in 10.0 mi NNW 6.9 mph - N/A Rain Light Rain
10:35 PM 35.6 °F 30.7 °F 33.8 °F 93% 30.01 in 10.0 mi North 5.8 mph - N/A   Overcast
10:55 PM 35.6 °F 30.7 °F 33.8 °F 93% 30.01 in 10.0 mi North 5.8 mph - N/A   Overcast
11:14 PM 35.6 °F 31.7 °F 32.0 °F 87% 30.02 in 10.0 mi North 4.6 mph - N/A   Overcast
11:35 PM 35.6 °F 30.7 °F 32.0 °F 87% 30.04 in 10.0 mi NNW 5.8 mph - N/A   Overcast